Time;durP1;ratioP1;P1;durP2;ratioP2;P2;SDS_P1;SDS_P2;PMS_P1;PMS_P2;Temp;Humidity;BMP_temperature;BMP_pressure;BME280_temperature;BME280_humidity;BME280_pressure;Samples;Min_cycle;Max_cycle;Signal;HPM_P1;HPM_P2
2022/12/03 00:01:23;;;;;;;16.17;7.55;;;2.90;99.90;;;;;;5049813;28;20037;-39
2022/12/03 00:03:49;;;;;;;15.55;7.20;;;2.90;99.90;;;;;;5046505;28;20400;-38
2022/12/03 00:06:16;;;;;;;19.08;8.30;;;2.90;99.90;;;;;;5046863;28;20072;-40
2022/12/03 00:08:42;;;;;;;17.35;7.43;;;2.90;99.90;;;;;;5042803;28;20048;-39
2022/12/03 00:11:07;;;;;;;14.38;6.38;;;2.90;99.90;;;;;;5046060;28;20037;-39
2022/12/03 00:13:33;;;;;;;15.02;6.97;;;3.00;99.90;;;;;;5041254;28;20037;-38
2022/12/03 00:15:59;;;;;;;15.93;6.88;;;3.00;99.90;;;;;;5043994;28;20123;-39
2022/12/03 00:18:24;;;;;;;19.15;7.95;;;3.00;99.90;;;;;;5044715;28;20501;-39
2022/12/03 00:20:50;;;;;;;18.02;6.93;;;3.00;99.90;;;;;;5047122;28;20171;-39
2022/12/03 00:23:16;;;;;;;17.38;7.43;;;3.00;99.90;;;;;;5056371;28;20159;-38
2022/12/03 00:25:41;;;;;;;18.23;7.55;;;3.00;99.90;;;;;;5044207;28;20033;-39
2022/12/03 00:28:07;;;;;;;20.27;8.48;;;3.00;99.90;;;;;;5045369;28;20498;-39
2022/12/03 00:30:33;;;;;;;16.95;7.20;;;3.00;99.90;;;;;;5041908;28;20045;-39
2022/12/03 00:32:58;;;;;;;15.15;7.38;;;3.00;99.90;;;;;;5044865;28;20069;-39
2022/12/03 00:35:24;;;;;;;15.55;7.18;;;3.00;99.90;;;;;;5046450;28;20140;-39
2022/12/03 00:37:49;;;;;;;18.00;7.47;;;3.00;99.90;;;;;;5048643;28;20056;-40
2022/12/03 00:40:15;;;;;;;19.25;7.53;;;3.00;99.90;;;;;;5041505;28;20053;-39
2022/12/03 00:42:41;;;;;;;19.38;7.88;;;3.00;99.90;;;;;;5048355;28;20062;-38
2022/12/03 00:45:07;;;;;;;17.00;7.55;;;3.00;99.90;;;;;;5044158;28;20052;-40
2022/12/03 00:47:33;;;;;;;17.63;7.90;;;3.10;99.90;;;;;;5043709;28;20048;-38
2022/12/03 00:49:59;;;;;;;15.38;6.35;;;3.10;99.90;;;;;;5041611;28;20049;-39
2022/12/03 00:52:24;;;;;;;22.27;9.48;;;3.00;99.90;;;;;;5044820;28;20029;-39
2022/12/03 00:54:50;;;;;;;17.75;7.47;;;3.10;99.90;;;;;;5050016;28;20052;-41
2022/12/03 00:57:16;;;;;;;18.52;8.18;;;3.10;99.90;;;;;;5040992;28;20052;-40
2022/12/03 00:59:41;;;;;;;17.35;6.80;;;3.10;99.90;;;;;;5048051;28;20086;-39
2022/12/03 01:02:07;;;;;;;17.05;7.50;;;3.10;99.90;;;;;;5042544;28;20049;-41
2022/12/03 01:04:33;;;;;;;16.55;7.32;;;3.10;99.90;;;;;;5044190;28;20557;-40
2022/12/03 01:07:00;;;;;;;17.30;7.60;;;3.10;99.90;;;;;;5036432;28;20083;-39
2022/12/03 01:09:25;;;;;;;18.98;8.27;;;3.10;99.90;;;;;;5039322;28;20044;-39
2022/12/03 01:11:51;;;;;;;16.75;7.07;;;3.10;99.90;;;;;;5044404;28;20044;-39
2022/12/03 01:14:18;;;;;;;14.50;6.05;;;3.10;99.90;;;;;;5042987;28;20498;-40
2022/12/03 01:16:45;;;;;;;18.48;8.23;;;3.10;99.90;;;;;;5043413;28;20116;-39
2022/12/03 01:19:15;;;;;;;21.90;7.90;;;3.10;99.90;;;;;;5045047;28;20076;-39
2022/12/03 01:21:42;;;;;;;18.55;7.63;;;3.10;99.90;;;;;;5042052;28;20933;-39
2022/12/03 01:24:09;;;;;;;16.35;7.20;;;3.10;99.90;;;;;;5037214;28;20037;-39
2022/12/03 01:26:34;;;;;;;18.35;7.88;;;3.10;99.90;;;;;;5046153;28;20406;-39
2022/12/03 01:29:00;;;;;;;19.80;8.32;;;3.10;99.90;;;;;;5042264;28;20133;-41
2022/12/03 01:34:10;;;;;;;17.98;7.43;;;3.10;99.90;;;;;;5042993;28;20132;-39
2022/12/03 01:36:35;;;;;;;18.75;7.63;;;3.10;99.90;;;;;;5043824;28;20151;-40
2022/12/03 01:39:02;;;;;;;18.42;8.07;;;3.10;99.90;;;;;;5041303;28;20115;-40
2022/12/03 01:41:30;;;;;;;18.02;7.05;;;3.10;99.90;;;;;;5044688;28;20052;-39
2022/12/03 01:43:57;;;;;;;18.85;7.85;;;3.10;99.90;;;;;;5035964;28;20053;-41
2022/12/03 01:46:25;;;;;;;20.38;9.00;;;3.20;99.90;;;;;;5044912;28;20033;-39
2022/12/03 01:48:54;;;;;;;19.13;7.70;;;3.20;99.90;;;;;;5040477;28;20081;-40
2022/12/03 01:51:20;;;;;;;21.60;9.15;;;3.20;99.90;;;;;;5044619;28;20068;-40
2022/12/03 01:53:47;;;;;;;17.75;7.60;;;3.20;99.90;;;;;;5040081;28;20538;-39
2022/12/03 01:56:17;;;;;;;18.83;7.90;;;3.20;99.90;;;;;;5039363;28;20053;-39
2022/12/03 01:58:44;;;;;;;18.73;7.30;;;3.20;99.90;;;;;;5037552;28;20487;-39
2022/12/03 02:01:16;;;;;;;18.30;7.72;;;3.20;99.90;;;;;;5033424;28;20040;-40
2022/12/03 02:03:42;;;;;;;18.40;7.97;;;3.20;99.90;;;;;;5035549;28;20037;-40
2022/12/03 02:06:25;;;;;;;21.85;8.35;;;3.20;99.90;;;;;;5039056;28;20056;-39
2022/12/03 02:08:57;;;;;;;16.70;7.68;;;3.20;99.90;;;;;;5036270;28;20548;-39
2022/12/03 02:11:23;;;;;;;;;;;3.20;99.90;;;;;;5044748;28;20116;-38
2022/12/03 02:13:53;;;;;;;17.45;7.38;;;3.20;99.90;;;;;;5030981;28;20015;-40
2022/12/03 02:16:19;;;;;;;18.40;8.35;;;3.20;99.90;;;;;;5040818;28;20078;-39
2022/12/03 02:18:45;;;;;;;16.63;6.85;;;3.20;99.90;;;;;;5041403;28;20541;-39
2022/12/03 02:21:43;;;;;;;21.92;8.65;;;3.20;99.90;;;;;;5036786;28;20083;-40
2022/12/03 02:24:35;;;;;;;17.67;7.63;;;3.20;99.90;;;;;;5041281;28;20069;-39
2022/12/03 02:27:01;;;;;;;19.30;8.25;;;3.20;99.90;;;;;;5035250;28;20045;-39
2022/12/03 02:29:27;;;;;;;16.02;8.02;;;3.20;99.90;;;;;;5042155;28;20506;-40
2022/12/03 02:31:52;;;;;;;20.80;7.90;;;3.30;99.90;;;;;;5037275;28;20052;-39
2022/12/03 02:34:39;;;;;;;18.65;7.95;;;3.30;99.90;;;;;;5042157;28;20045;-39
2022/12/03 02:37:08;;;;;;;18.48;8.50;;;3.30;99.90;;;;;;5043303;28;20495;-42
2022/12/03 02:39:39;;;;;;;18.92;8.85;;;3.30;99.90;;;;;;5040441;28;20495;-39
2022/12/03 02:44:50;;;;;;;20.52;8.45;;;3.30;99.90;;;;;;5041363;28;20079;-40
2022/12/03 02:47:17;;;;;;;19.50;8.05;;;3.30;99.90;;;;;;5039436;28;20053;-39
2022/12/03 02:49:43;;;;;;;18.35;8.45;;;3.30;99.90;;;;;;5035127;28;20048;-39
2022/12/03 02:52:09;;;;;;;16.70;8.05;;;3.30;99.90;;;;;;5046927;28;20059;-39
2022/12/03 02:54:35;;;;;;;19.85;8.90;;;3.30;99.90;;;;;;5042337;28;20123;-39
2022/12/03 02:57:01;;;;;;;17.75;8.10;;;3.30;99.90;;;;;;5034995;28;20051;-39
2022/12/03 02:59:27;;;;;;;18.98;8.55;;;3.30;99.90;;;;;;5046901;28;20151;-39
2022/12/03 03:01:52;;;;;;;17.20;7.57;;;3.30;99.90;;;;;;5039558;28;20161;-39
2022/12/03 03:04:18;;;;;;;16.38;7.93;;;3.30;99.90;;;;;;5034600;28;20048;-39
2022/12/03 03:06:44;;;;;;;17.10;8.23;;;3.30;99.90;;;;;;5008333;28;20672;-38
2022/12/03 03:09:10;;;;;;;17.50;7.85;;;3.30;99.90;;;;;;5040720;28;20129;-39
2022/12/03 03:11:35;;;;;;;16.85;8.02;;;3.40;99.90;;;;;;5035261;28;20037;-40
2022/12/03 03:14:02;;;;;;;15.32;7.95;;;3.30;99.90;;;;;;5049479;28;20041;-39
2022/12/03 03:16:28;;;;;;;17.38;8.52;;;3.30;99.90;;;;;;5044441;28;20036;-39
2022/12/03 03:18:54;;;;;;;17.25;7.50;;;3.30;99.90;;;;;;5044831;28;20037;-39
2022/12/03 03:21:19;;;;;;;17.15;7.57;;;3.30;99.90;;;;;;5043477;28;21421;-39
2022/12/03 03:23:45;;;;;;;19.42;8.00;;;3.30;99.90;;;;;;5041784;28;20075;-39
2022/12/03 03:26:12;;;;;;;16.65;7.18;;;3.30;99.90;;;;;;5036661;28;20131;-39
2022/12/03 03:28:45;;;;;;;18.45;8.82;;;3.30;99.90;;;;;;5049252;28;20041;-40
2022/12/03 03:31:14;;;;;;;15.75;8.13;;;3.30;99.90;;;;;;5045230;28;20497;-40
2022/12/03 03:33:41;;;;;;;15.55;7.35;;;3.30;99.90;;;;;;5048456;28;20041;-39
2022/12/03 03:36:08;;;;;;;17.92;8.52;;;3.30;99.90;;;;;;5049002;28;20433;-39
2022/12/03 03:38:35;;;;;;;18.05;8.52;;;3.30;99.90;;;;;;5043317;28;20095;-38
2022/12/03 03:41:02;;;;;;;20.15;8.75;;;3.30;99.90;;;;;;5040826;28;20139;-39
2022/12/03 03:43:29;;;;;;;18.02;7.97;;;3.30;99.90;;;;;;5043647;28;20101;-44
2022/12/03 03:45:55;;;;;;;15.15;7.35;;;3.30;99.90;;;;;;5046713;28;20155;-40
2022/12/03 03:48:22;;;;;;;15.77;7.80;;;3.30;99.90;;;;;;5043747;28;20116;-38
2022/12/03 03:50:49;;;;;;;16.40;7.75;;;3.30;99.90;;;;;;5045016;28;20040;-39
2022/12/03 03:53:16;;;;;;;16.90;7.95;;;3.30;99.90;;;;;;5045694;28;20045;-40
2022/12/03 03:55:42;;;;;;;16.65;8.27;;;3.30;99.90;;;;;;5045811;28;20392;-39
2022/12/03 03:58:08;;;;;;;18.67;8.70;;;3.30;99.90;;;;;;5041733;28;20128;-39
2022/12/03 04:00:35;;;;;;;15.35;7.72;;;3.30;99.90;;;;;;5024702;28;20045;-40
2022/12/03 04:03:02;;;;;;;17.90;8.00;;;3.30;99.90;;;;;;5048690;28;20044;-38
2022/12/03 04:05:28;;;;;;;20.50;8.98;;;3.30;99.90;;;;;;5054050;28;20486;-40
2022/12/03 04:07:54;;;;;;;17.75;8.18;;;3.30;99.90;;;;;;5042397;28;20078;-39
2022/12/03 04:13:04;;;;;;;19.27;8.10;;;3.30;99.90;;;;;;5041299;28;20049;-38
2022/12/03 04:15:30;;;;;;;17.38;8.27;;;3.30;99.90;;;;;;5029515;28;20037;-39
2022/12/03 04:20:40;;;;;;;18.13;8.10;;;3.30;99.90;;;;;;5041232;28;20494;-39
2022/12/03 04:23:06;;;;;;;19.15;8.88;;;3.30;99.90;;;;;;5041437;28;20092;-39
2022/12/03 04:35:41;;;;;;;20.02;9.18;;;3.30;99.90;;;;;;5045403;28;20053;-39
2022/12/03 04:36:30;;;;;;;15.65;7.60;;;3.20;99.90;;;;;;5038691;28;20060;-41
2022/12/03 04:38:56;;;;;;;21.45;8.27;;;3.20;99.90;;;;;;5043891;28;20052;-39
2022/12/03 04:41:21;;;;;;;19.48;9.13;;;3.20;99.90;;;;;;5037893;28;20045;-40
2022/12/03 04:46:31;;;;;;;18.95;8.70;;;3.10;99.90;;;;;;5043679;28;20072;-38
2022/12/03 04:48:57;;;;;;;16.10;7.80;;;3.10;99.90;;;;;;5044094;28;20064;-39
2022/12/03 04:51:22;;;;;;;21.38;9.63;;;3.10;99.90;;;;;;5039843;28;20033;-39
2022/12/03 04:53:48;;;;;;;19.60;8.75;;;3.00;99.90;;;;;;5039963;28;20045;-38
2022/12/03 04:56:14;;;;;;;19.63;9.07;;;3.10;99.90;;;;;;5048526;28;20514;-38
2022/12/03 04:58:39;;;;;;;19.83;8.90;;;3.00;99.90;;;;;;5045131;28;20530;-39
2022/12/03 05:01:05;;;;;;;19.45;9.13;;;3.00;99.90;;;;;;5045492;28;20270;-39
2022/12/03 05:03:31;;;;;;;18.55;8.75;;;2.90;99.90;;;;;;5026476;28;20051;-39
2022/12/03 05:05:56;;;;;;;18.23;7.65;;;3.00;99.90;;;;;;5045104;28;20040;-39
2022/12/03 05:08:22;;;;;;;17.83;9.02;;;2.90;99.90;;;;;;5046380;28;20058;-39
2022/12/03 05:10:47;;;;;;;18.80;8.48;;;2.90;99.90;;;;;;5037587;28;20139;-39
2022/12/03 05:13:13;;;;;;;18.42;8.15;;;2.90;99.90;;;;;;5037302;28;20457;-45
2022/12/03 05:15:39;;;;;;;17.83;8.20;;;2.90;99.90;;;;;;5046850;28;20115;-39
2022/12/03 05:18:04;;;;;;;20.23;8.82;;;2.90;99.90;;;;;;5046571;28;20478;-39
2022/12/03 05:20:42;;;;;;;18.50;8.27;;;2.90;99.90;;;;;;5043587;28;20036;-39
2022/12/03 05:23:09;;;;;;;17.60;7.90;;;2.90;99.90;;;;;;5045732;28;20037;-39
2022/12/03 05:25:34;;;;;;;18.48;8.38;;;2.90;99.90;;;;;;5046046;28;20086;-39
2022/12/03 05:28:00;;;;;;;18.42;8.70;;;2.90;99.90;;;;;;5042610;28;20061;-39
2022/12/03 05:30:26;;;;;;;19.38;8.80;;;2.90;99.90;;;;;;5040023;28;20040;-39
2022/12/03 05:32:51;;;;;;;19.63;8.77;;;2.90;99.90;;;;;;5049523;28;20509;-40
2022/12/03 05:35:17;;;;;;;19.42;8.77;;;2.90;99.90;;;;;;5039357;28;20520;-39
2022/12/03 05:37:43;;;;;;;18.55;8.95;;;2.90;99.90;;;;;;5039808;28;20099;-39
2022/12/03 05:40:09;;;;;;;17.77;8.95;;;2.90;99.90;;;;;;5039763;28;20416;-40
2022/12/03 05:42:53;;;;;;;22.88;9.88;;;2.80;99.90;;;;;;5047681;28;20080;-40
2022/12/03 05:45:20;;;;;;;18.75;8.63;;;2.90;99.90;;;;;;5038826;28;20115;-39
2022/12/03 05:47:46;;;;;;;14.48;7.28;;;2.80;99.90;;;;;;5043050;28;20040;-41
2022/12/03 05:50:11;;;;;;;17.75;7.75;;;2.80;99.90;;;;;;5042354;28;20540;-39
2022/12/03 05:52:37;;;;;;;19.15;8.70;;;2.80;99.90;;;;;;5045479;28;20115;-39
2022/12/03 05:55:03;;;;;;;20.17;9.27;;;2.80;99.90;;;;;;5044772;28;20438;-39
2022/12/03 05:57:29;;;;;;;18.52;8.98;;;2.80;99.90;;;;;;5045593;28;20025;-39
2022/12/03 05:59:54;;;;;;;21.23;9.00;;;2.80;99.90;;;;;;5044704;28;20041;-39
2022/12/03 06:02:20;;;;;;;20.13;9.93;;;2.80;99.90;;;;;;5040629;28;20090;-40
2022/12/03 06:04:46;;;;;;;20.55;9.00;;;2.80;99.90;;;;;;5038582;28;20414;-39
2022/12/03 06:07:11;;;;;;;17.73;8.48;;;2.80;99.90;;;;;;5039717;28;20110;-41
2022/12/03 06:09:37;;;;;;;16.13;8.18;;;2.80;99.90;;;;;;5045473;28;20067;-39
2022/12/03 06:12:05;;;;;;;18.77;8.85;;;2.80;99.90;;;;;;5046701;28;20059;-40
2022/12/03 06:14:33;;;;;;;21.58;9.60;;;2.80;99.90;;;;;;5046193;28;20513;-39
2022/12/03 06:16:59;;;;;;;22.73;9.50;;;2.80;99.90;;;;;;5044199;28;20436;-39
2022/12/03 06:19:24;;;;;;;19.23;7.85;;;2.80;99.90;;;;;;5045339;28;20071;-40
2022/12/03 06:21:50;;;;;;;20.25;9.43;;;2.80;99.90;;;;;;5035578;28;20498;-40
2022/12/03 06:24:16;;;;;;;19.35;10.32;;;2.80;99.90;;;;;;5045384;28;20045;-41
2022/12/03 06:26:41;;;;;;;18.42;8.77;;;2.80;99.90;;;;;;5044148;28;20045;-40
2022/12/03 06:29:07;;;;;;;22.05;9.07;;;2.80;99.90;;;;;;5028645;28;20049;-39
2022/12/03 06:31:32;;;;;;;16.48;8.57;;;2.80;99.90;;;;;;5042696;28;20052;-39
2022/12/03 06:33:58;;;;;;;17.50;8.65;;;2.80;99.90;;;;;;5033688;28;20041;-39
2022/12/03 06:36:26;;;;;;;19.30;8.38;;;2.80;99.90;;;;;;5043917;28;20037;-39
2022/12/03 06:38:52;;;;;;;20.25;8.73;;;2.70;99.90;;;;;;5042673;28;20510;-39
2022/12/03 06:41:18;;;;;;;17.58;8.27;;;2.80;99.90;;;;;;5044739;28;20617;-39
2022/12/03 06:43:44;;;;;;;18.67;8.98;;;2.70;99.90;;;;;;5040383;28;20036;-39
2022/12/03 06:46:10;;;;;;;19.13;9.30;;;2.70;99.90;;;;;;5034547;28;20417;-39
2022/12/03 06:48:35;;;;;;;21.50;8.70;;;2.80;99.90;;;;;;5038306;28;20041;-39
2022/12/03 06:51:01;;;;;;;18.15;9.02;;;2.70;99.90;;;;;;5045519;28;20040;-40
2022/12/03 06:53:27;;;;;;;19.77;9.02;;;2.80;99.90;;;;;;5041660;28;20045;-39
2022/12/03 06:55:52;;;;;;;19.60;8.80;;;2.80;99.90;;;;;;5042249;28;20041;-39
2022/12/03 06:58:18;;;;;;;17.77;8.63;;;2.70;99.90;;;;;;5028019;28;20037;-39
2022/12/03 07:00:43;;;;;;;20.48;10.02;;;2.70;99.90;;;;;;5043055;28;20448;-40
2022/12/03 07:03:09;;;;;;;21.55;9.77;;;2.80;99.90;;;;;;5043675;28;20486;-39
2022/12/03 07:05:35;;;;;;;21.77;9.20;;;2.70;99.90;;;;;;5043248;28;20131;-45
2022/12/03 07:08:00;;;;;;;22.70;10.23;;;2.70;99.90;;;;;;5046400;28;20049;-47
2022/12/03 07:10:26;;;;;;;20.45;9.73;;;2.70;99.90;;;;;;5037746;28;20048;-45
2022/12/03 07:12:52;;;;;;;20.58;10.00;;;2.70;99.90;;;;;;5038490;28;20045;-44
2022/12/03 07:15:17;;;;;;;23.77;10.27;;;2.70;99.90;;;;;;5040350;28;20526;-44
2022/12/03 07:17:43;;;;;;;22.75;9.85;;;2.70;99.90;;;;;;5033946;28;20075;-42
2022/12/03 07:20:09;;;;;;;25.52;10.80;;;2.70;99.90;;;;;;5042853;28;20037;-45
2022/12/03 07:22:35;;;;;;;22.73;10.80;;;2.70;99.90;;;;;;5042287;28;20142;-50
2022/12/03 07:25:01;;;;;;;22.50;10.00;;;2.70;99.90;;;;;;5036153;28;20134;-44
2022/12/03 07:27:26;;;;;;;23.17;10.07;;;2.70;99.90;;;;;;5040628;28;20044;-45
2022/12/03 07:29:52;;;;;;;24.92;12.10;;;2.70;99.90;;;;;;5041455;28;20041;-45
2022/12/03 07:32:17;;;;;;;24.33;10.40;;;2.70;99.90;;;;;;5041464;28;20036;-42
2022/12/03 07:34:43;;;;;;;25.88;10.43;;;2.70;99.90;;;;;;5038270;28;20037;-45
2022/12/03 07:37:09;;;;;;;19.48;9.60;;;2.70;99.90;;;;;;5038533;28;20095;-44
2022/12/03 07:39:34;;;;;;;20.27;8.95;;;2.70;99.90;;;;;;5041279;28;20057;-44
2022/12/03 07:42:00;;;;;;;24.40;11.57;;;2.70;99.90;;;;;;5044567;28;20596;-46
2022/12/03 07:44:27;;;;;;;23.58;10.10;;;2.70;99.90;;;;;;5045641;28;20040;-45
2022/12/03 07:46:53;;;;;;;23.15;10.57;;;2.80;99.90;;;;;;5044711;28;20037;-43
2022/12/03 07:49:18;;;;;;;20.98;10.23;;;2.80;99.90;;;;;;5050990;28;20049;-44
2022/12/03 07:51:52;;;;;;;21.40;10.15;;;2.70;99.90;;;;;;5040432;28;20044;-47
2022/12/03 07:54:19;;;;;;;24.58;11.50;;;2.70;99.90;;;;;;5034615;28;20045;-44
2022/12/03 07:56:46;;;;;;;29.92;12.30;;;2.80;99.90;;;;;;5058612;28;20112;-42
2022/12/03 07:59:12;;;;;;;22.23;10.15;;;2.80;99.90;;;;;;5043553;28;20036;-42
2022/12/03 08:01:38;;;;;;;24.45;11.13;;;2.70;99.90;;;;;;5042241;28;20037;-43
2022/12/03 08:04:04;;;;;;;26.73;11.07;;;2.70;99.90;;;;;;5042123;28;20120;-44
2022/12/03 08:06:29;;;;;;;24.73;10.27;;;2.60;99.90;;;;;;5039371;28;20087;-45
2022/12/03 08:08:55;;;;;;;26.00;11.25;;;2.60;99.90;;;;;;5042921;28;20133;-42
2022/12/03 08:11:21;;;;;;;21.95;10.13;;;2.60;99.90;;;;;;5041064;28;20103;-43
2022/12/03 08:13:46;;;;;;;23.45;11.40;;;2.60;99.90;;;;;;5047629;28;20584;-44
2022/12/03 08:16:18;;;;;;;24.20;10.63;;;2.60;99.90;;;;;;5045161;28;20098;-43
2022/12/03 08:18:45;;;;;;;24.87;10.43;;;2.50;99.90;;;;;;5049922;28;20045;-45
2022/12/03 08:21:12;;;;;;;24.10;11.10;;;2.50;99.90;;;;;;5048449;28;20029;-42
2022/12/03 08:23:39;;;;;;;22.15;10.20;;;2.50;99.90;;;;;;5043333;28;20534;-44
2022/12/03 08:26:23;;;;;;;24.27;10.65;;;2.50;99.90;;;;;;5043344;28;20044;-44
2022/12/03 08:28:50;;;;;;;27.17;11.40;;;2.50;99.90;;;;;;5018176;28;20053;-43
2022/12/03 08:31:24;;;;;;;27.35;11.73;;;2.50;99.90;;;;;;5037191;28;20049;-42
2022/12/03 08:33:53;;;;;;;26.40;11.98;;;2.50;99.90;;;;;;5043274;28;20047;-42
2022/12/03 08:36:22;;;;;;;23.60;11.05;;;2.50;99.90;;;;;;5043373;28;20046;-49
2022/12/03 08:38:54;;;;;;;23.63;10.93;;;2.50;99.90;;;;;;5035613;28;20147;-43
2022/12/03 08:44:22;;;;;;;26.38;11.10;;;2.50;99.90;;;;;;5040413;28;20499;-45
2022/12/03 08:47:21;;;;;;;26.95;11.77;;;2.40;99.90;;;;;;5035448;28;20137;-44
2022/12/03 08:50:05;;;;;;;22.58;9.70;;;2.50;99.90;;;;;;5032164;28;20029;-44
2022/12/03 08:52:33;;;;;;;27.40;10.88;;;2.40;99.90;;;;;;5045810;28;20102;-44
2022/12/03 08:55:07;;;;;;;23.75;10.48;;;2.50;99.90;;;;;;5043485;28;20045;-41
2022/12/03 08:57:34;;;;;;;29.63;13.05;;;2.40;99.90;;;;;;5044158;28;20144;-42
2022/12/03 09:00:20;;;;;;;26.85;10.70;;;2.40;99.90;;;;;;5046830;28;20071;-45
2022/12/03 09:02:51;;;;;;;22.67;10.63;;;2.50;99.90;;;;;;5041698;28;20039;-43
2022/12/03 09:05:25;;;;;;;26.55;11.93;;;2.40;99.90;;;;;;5038923;28;20048;-39
2022/12/03 09:07:50;;;;;;;25.77;10.70;;;2.50;99.90;;;;;;5045610;28;20045;-43
2022/12/03 09:10:16;;;;;;;22.42;10.63;;;2.40;99.90;;;;;;5037249;28;20044;-39
2022/12/03 09:12:42;;;;;;;25.05;10.88;;;2.40;99.90;;;;;;5037464;28;20129;-41
2022/12/03 09:15:08;;;;;;;27.75;11.70;;;2.50;99.90;;;;;;5049246;28;20112;-46
2022/12/03 09:17:33;;;;;;;25.00;11.98;;;2.40;99.90;;;;;;5040281;28;20095;-42
2022/12/03 09:19:59;;;;;;;26.35;12.27;;;2.40;99.90;;;;;;5033928;28;20033;-43
2022/12/03 09:22:24;;;;;;;28.02;11.90;;;2.50;99.90;;;;;;5038068;28;20057;-43
2022/12/03 09:24:50;;;;;;;25.33;10.93;;;2.50;99.90;;;;;;5030453;28;20534;-44
2022/12/03 09:27:16;;;;;;;25.58;11.98;;;2.40;99.90;;;;;;5036590;28;20474;-44
2022/12/03 09:29:41;;;;;;;28.00;12.07;;;2.40;99.90;;;;;;5041429;28;20048;-43
2022/12/03 09:32:07;;;;;;;26.95;10.82;;;2.40;99.90;;;;;;5033152;28;20499;-43
2022/12/03 09:34:33;;;;;;;25.30;10.50;;;2.50;99.90;;;;;;5027359;28;20111;-45
2022/12/03 09:36:59;;;;;;;25.67;11.13;;;2.50;99.90;;;;;;5043599;28;20521;-44
2022/12/03 09:39:25;;;;;;;22.70;10.10;;;2.50;99.90;;;;;;5038246;28;20083;-42
2022/12/03 09:41:51;;;;;;;27.80;10.38;;;2.50;99.90;;;;;;5038558;28;20462;-45
2022/12/03 09:44:17;;;;;;;26.38;11.48;;;2.50;99.90;;;;;;5039265;28;20386;-46
2022/12/03 09:46:43;;;;;;;22.92;9.68;;;2.60;99.90;;;;;;5039523;28;20068;-43
2022/12/03 09:49:12;;;;;;;26.13;11.48;;;2.60;99.90;;;;;;5040730;28;20127;-44
2022/12/03 09:51:38;;;;;;;25.88;10.70;;;2.50;99.90;;;;;;5045863;28;20546;-40
2022/12/03 09:54:05;;;;;;;23.73;11.05;;;2.60;99.90;;;;;;5036843;28;20513;-46
2022/12/03 09:56:32;;;;;;;25.63;11.10;;;2.60;99.90;;;;;;5040494;28;20482;-41
2022/12/03 09:58:58;;;;;;;21.80;10.52;;;2.60;99.90;;;;;;5026281;28;20037;-42
2022/12/03 10:01:24;;;;;;;22.65;10.95;;;2.60;99.90;;;;;;5045868;28;20075;-43
2022/12/03 10:03:51;;;;;;;26.88;10.93;;;2.60;99.90;;;;;;5035867;28;20041;-42
2022/12/03 10:06:21;;;;;;;22.15;9.98;;;2.60;99.90;;;;;;5033842;28;20044;-42
2022/12/03 10:08:50;;;;;;;26.75;10.45;;;2.60;99.90;;;;;;5038622;28;20105;-43
2022/12/03 10:11:17;;;;;;;25.42;11.07;;;2.60;99.90;;;;;;5039299;28;20045;-41
2022/12/03 10:13:44;;;;;;;24.98;11.30;;;2.60;99.90;;;;;;5038101;28;20045;-42
2022/12/03 10:16:14;;;;;;;21.60;10.48;;;2.60;99.90;;;;;;5048251;28;20098;-42
2022/12/03 10:18:43;;;;;;;23.42;11.40;;;2.60;99.90;;;;;;5028468;28;20038;-41
2022/12/03 10:21:24;;;;;;;23.65;10.95;;;2.60;99.90;;;;;;5038800;28;20973;-44
2022/12/03 10:24:17;;;;;;;23.40;11.15;;;2.60;99.90;;;;;;5040927;28;20071;-40
2022/12/03 10:26:44;;;;;;;24.63;11.48;;;2.60;99.90;;;;;;5041511;28;20037;-41
2022/12/03 10:29:16;;;;;;;26.15;10.82;;;2.70;99.90;;;;;;5049790;28;20041;-41
2022/12/03 10:31:42;;;;;;;25.88;10.60;;;2.70;99.90;;;;;;5047607;28;20038;-42
2022/12/03 10:34:09;;;;;;;21.48;10.48;;;2.70;99.90;;;;;;5016548;28;20033;-40
2022/12/03 10:36:34;;;;;;;22.08;11.02;;;2.70;99.90;;;;;;5039210;28;20168;-44
2022/12/03 10:39:09;;;;;;;27.80;10.82;;;2.70;99.90;;;;;;5043159;28;20124;-42
2022/12/03 10:41:36;;;;;;;24.38;10.70;;;2.70;99.90;;;;;;5038433;28;20049;-43
2022/12/03 10:44:15;;;;;;;22.80;10.23;;;2.80;99.90;;;;;;5047830;28;20044;-42
2022/12/03 10:46:41;;;;;;;24.10;11.25;;;2.80;99.90;;;;;;5044539;28;20529;-42
2022/12/03 10:49:16;;;;;;;22.02;10.00;;;2.80;99.90;;;;;;5036448;28;20044;-45
2022/12/03 10:51:43;;;;;;;25.48;10.82;;;2.80;99.90;;;;;;5045165;28;20045;-42
2022/12/03 10:54:23;;;;;;;26.73;10.82;;;2.80;99.90;;;;;;5043155;28;20066;-44
2022/12/03 10:56:50;;;;;;;29.83;11.70;;;2.80;99.90;;;;;;5036984;28;20034;-43
2022/12/03 10:59:22;;;;;;;26.17;11.27;;;2.80;99.90;;;;;;5048107;28;20072;-42
2022/12/03 11:01:48;;;;;;;24.37;11.33;;;2.80;99.90;;;;;;5038401;28;20548;-42
2022/12/03 11:04:25;;;;;;;25.63;11.25;;;2.80;99.90;;;;;;5041581;28;20073;-43
2022/12/03 11:06:51;;;;;;;23.13;10.48;;;2.80;99.90;;;;;;5037405;28;20041;-41
2022/12/03 11:09:25;;;;;;;26.15;10.75;;;2.80;99.90;;;;;;5034802;28;20030;-45
2022/12/03 11:11:52;;;;;;;23.20;9.52;;;2.80;99.90;;;;;;5043365;28;20033;-44
2022/12/03 11:14:52;;;;;;;22.02;10.43;;;2.90;99.90;;;;;;5051676;28;20124;-47
2022/12/03 11:17:44;;;;;;;25.85;11.68;;;3.00;99.90;;;;;;5018875;28;20141;-41
2022/12/03 11:20:24;;;;;;;28.10;11.82;;;3.00;99.90;;;;;;5037345;28;20041;-39
2022/12/03 11:22:51;;;;;;;24.98;11.20;;;3.10;99.90;;;;;;5041029;28;20045;-52
2022/12/03 11:25:26;;;;;;;29.48;11.90;;;3.00;99.90;;;;;;5048714;28;20033;-43
2022/12/03 11:28:10;;;;;;;28.20;12.52;;;3.10;99.70;;;;;;5038141;28;20042;-38
2022/12/03 11:30:52;;;;;;;25.83;11.77;;;3.10;99.70;;;;;;5040332;28;20043;-39
2022/12/03 11:33:28;;;;;;;24.05;10.68;;;3.10;99.80;;;;;;5038271;28;20253;-43
2022/12/03 11:36:09;;;;;;;25.70;10.95;;;3.10;99.50;;;;;;5035403;28;20091;-44
2022/12/03 11:38:44;;;;;;;24.55;11.63;;;3.10;99.40;;;;;;5043260;28;20498;-40
2022/12/03 11:41:21;;;;;;;24.90;11.27;;;3.20;99.80;;;;;;5036850;28;20053;-43
2022/12/03 11:43:55;;;;;;;28.80;12.15;;;3.10;99.80;;;;;;5041135;28;20068;-40
2022/12/03 11:46:38;;;;;;;30.02;12.60;;;3.20;99.70;;;;;;5040367;28;20056;-42
2022/12/03 11:49:43;;;;;;;27.13;11.68;;;3.20;99.10;;;;;;5044995;28;20040;-41
2022/12/03 11:52:21;;;;;;;27.17;11.57;;;3.10;99.10;;;;;;5034145;28;20033;-42
2022/12/03 11:54:51;;;;;;;27.23;11.55;;;3.20;99.50;;;;;;5041608;28;20051;-39
2022/12/03 11:57:33;;;;;;;24.92;11.38;;;3.20;99.60;;;;;;5021280;28;20382;-40
2022/12/03 12:00:19;;;;;;;25.87;11.77;;;3.10;99.40;;;;;;5049065;28;20040;-43
2022/12/03 12:02:45;;;;;;;26.60;11.68;;;3.10;99.10;;;;;;5038963;28;20820;-42
2022/12/03 12:05:23;;;;;;;26.75;12.05;;;3.10;99.30;;;;;;5038489;28;20461;-40
2022/12/03 12:07:49;;;;;;;23.80;11.02;;;3.20;99.40;;;;;;5039477;28;20124;-43
2022/12/03 12:10:37;;;;;;;26.40;11.48;;;3.20;99.10;;;;;;5041693;28;20119;-43
2022/12/03 12:13:04;;;;;;;27.05;11.10;;;3.20;99.00;;;;;;5035248;28;20515;-47
2022/12/03 12:15:39;;;;;;;27.10;11.98;;;3.20;99.30;;;;;;5041418;28;20906;-42
2022/12/03 12:18:42;;;;;;;30.50;12.85;;;3.20;99.30;;;;;;5038713;28;20601;-43
2022/12/03 12:21:40;;;;;;;25.25;11.25;;;3.20;99.40;;;;;;5019368;28;20064;-44
2022/12/03 12:24:27;;;;;;;27.30;11.68;;;3.20;99.10;;;;;;5035209;28;20076;-43
2022/12/03 12:26:53;;;;;;;26.63;11.80;;;3.20;99.10;;;;;;5043902;28;20048;-43
2022/12/03 12:29:18;;;;;;;29.83;12.52;;;3.20;99.20;;;;;;5037840;28;20033;-44
2022/12/03 12:31:44;;;;;;;25.30;11.43;;;3.20;99.30;;;;;;5041777;28;20043;-44
2022/12/03 12:34:13;;;;;;;26.35;12.40;;;3.20;99.10;;;;;;5045690;28;20127;-43
2022/12/03 12:36:39;;;;;;;27.88;12.73;;;3.20;99.20;;;;;;5039410;28;20037;-45
2022/12/03 12:39:12;;;;;;;23.73;11.68;;;3.10;99.20;;;;;;5039221;28;20037;-39
2022/12/03 12:41:40;;;;;;;25.73;11.23;;;3.10;98.90;;;;;;5036978;28;20045;-43
2022/12/03 12:44:09;;;;;;;31.25;13.10;;;3.00;99.20;;;;;;5021694;28;20119;-42
2022/12/03 12:46:40;;;;;;;25.52;11.95;;;3.10;99.50;;;;;;5037541;28;20041;-44
2022/12/03 12:49:14;;;;;;;30.38;12.15;;;3.10;99.60;;;;;;5039995;28;20119;-43
2022/12/03 12:51:49;;;;;;;27.38;12.45;;;3.10;99.60;;;;;;5041145;28;20039;-41
2022/12/03 12:54:17;;;;;;;28.67;13.00;;;3.10;99.60;;;;;;5022017;28;20045;-45
2022/12/03 12:56:45;;;;;;;29.00;12.27;;;3.10;99.60;;;;;;5023534;28;20041;-43
2022/12/03 12:59:13;;;;;;;26.98;11.60;;;3.10;99.70;;;;;;5039508;28;20517;-42
2022/12/03 13:01:40;;;;;;;27.13;11.13;;;3.10;99.80;;;;;;5023639;28;20068;-44
2022/12/03 13:04:15;;;;;;;27.42;11.55;;;3.00;99.50;;;;;;5041195;28;20128;-45
2022/12/03 13:06:42;;;;;;;28.15;11.88;;;3.00;99.50;;;;;;5048180;28;20097;-42
2022/12/03 13:09:19;;;;;;;24.65;12.07;;;3.00;99.70;;;;;;5045329;28;20044;-44
2022/12/03 13:12:06;;;;;;;24.55;11.52;;;3.00;99.50;;;;;;5034428;28;20472;-43
2022/12/03 13:14:37;;;;;;;26.40;11.77;;;2.90;98.90;;;;;;5041365;28;20037;-47
2022/12/03 13:17:18;;;;;;;25.10;11.50;;;2.90;99.00;;;;;;5040942;28;20459;-45